Time;durP1;ratioP1;P1;durP2;ratioP2;P2;SDS_P1;SDS_P2;PMS_P1;PMS_P2;Temp;Humidity;BMP_temperature;BMP_pressure;BME280_temperature;BME280_humidity;BME280_pressure;Samples;Min_cycle;Max_cycle;Signal;HPM_P1;HPM_P2
2022/02/08 00:01:16;;;;;;;1.15;0.70;;;;;;;;;;5042896;28;20026;-70
2022/02/08 00:03:42;;;;;;;4.07;0.90;;;;;;;;;;5042808;28;20539;-68
2022/02/08 00:09:05;;;;;;;1.70;0.75;;;;;;;;;;5029563;28;20140;-67
2022/02/08 00:11:30;;;;;;;1.55;0.80;;;;;;;;;;5042609;28;20026;-68
2022/02/08 00:13:58;;;;;;;1.10;0.70;;;;;;;;;;5043185;28;20393;-68
2022/02/08 00:16:23;;;;;;;3.22;0.82;;;;;;;;;;5024914;28;20149;-68
2022/02/08 00:18:54;;;;;;;3.35;0.70;;;;;;;;;;5042808;28;20025;-68
2022/02/08 00:21:19;;;;;;;1.58;0.82;;;;;;;;;;5042664;28;20029;-68
2022/02/08 00:23:44;;;;;;;2.75;1.10;;;;;;;;;;5042539;28;20030;-68
2022/02/08 00:26:11;;;;;;;1.25;0.60;;;;;;;;;;5042673;28;20234;-68
2022/02/08 00:28:39;;;;;;;1.73;0.80;;;;;;;;;;5042647;28;20036;-68
2022/02/08 00:31:07;;;;;;;3.20;0.85;;;;;;;;;;5026560;28;20076;-68
2022/02/08 00:33:35;;;;;;;1.85;0.70;;;;;;;;;;5028929;28;20176;-68
2022/02/08 00:36:01;;;;;;;1.65;0.75;;;;;;;;;;5046371;28;20480;-67
2022/02/08 00:38:27;;;;;;;5.45;1.02;;;;;;;;;;5046427;28;20032;-68
2022/02/08 00:40:57;;;;;;;1.38;0.60;;;;;;;;;;5046464;28;20029;-68
2022/02/08 00:43:27;;;;;;;2.08;0.63;;;;;;;;;;5028761;28;20075;-68
2022/02/08 00:46:01;;;;;;;1.38;0.60;;;;;;;;;;5046387;28;20136;-68
2022/02/08 00:48:37;;;;;;;1.70;1.00;;;;;;;;;;5046506;28;20030;-67
2022/02/08 00:51:03;;;;;;;1.88;0.50;;;;;;;;;;5046298;28;20025;-68
2022/02/08 00:53:29;;;;;;;2.20;0.50;;;;;;;;;;5028240;28;20033;-68
2022/02/08 00:55:55;;;;;;;2.40;0.70;;;;;;;;;;5046014;28;20112;-67
2022/02/08 00:58:23;;;;;;;2.30;0.40;;;;;;;;;;5028215;28;20640;-69
2022/02/08 01:00:48;;;;;;;1.20;0.50;;;;;;;;;;5046191;28;20433;-68
2022/02/08 01:03:16;;;;;;;1.35;0.40;;;;;;;;;;5046115;28;20456;-68
2022/02/08 01:05:50;;;;;;;1.98;0.40;;;;;;;;;;5028114;28;20035;-67
2022/02/08 01:08:19;;;;;;;1.35;0.45;;;;;;;;;;5046149;28;20048;-67
2022/02/08 01:10:45;;;;;;;0.93;0.32;;;;;;;;;;5046186;28;20037;-68
2022/02/08 01:13:13;;;;;;;2.78;0.38;;;;;;;;;;5045976;28;20049;-68
2022/02/08 01:15:38;;;;;;;0.20;0.20;;;;;;;;;;5028020;28;20030;-68
2022/02/08 01:18:05;;;;;;;0.35;0.30;;;;;;;;;;5028141;28;20133;-68
2022/02/08 01:20:36;;;;;;;3.08;0.70;;;;;;;;;;5045544;28;20035;-68
2022/02/08 01:23:05;;;;;;;1.83;0.50;;;;;;;;;;5061033;28;20067;-68
2022/02/08 01:25:37;;;;;;;0.82;0.40;;;;;;;;;;5045744;28;20025;-67
2022/02/08 01:28:24;;;;;;;2.58;0.40;;;;;;;;;;5045451;28;20052;-68
2022/02/08 01:36:23;;;;;;;3.15;0.65;;;;;;;;;;5045107;28;20053;-68
2022/02/08 01:38:52;;;;;;;2.10;0.50;;;;;;;;;;5045072;28;20366;-68
2022/02/08 01:41:40;;;;;;;1.13;0.43;;;;;;;;;;5060219;28;20282;-68
2022/02/08 01:51:57;;;;;;;0.70;0.40;;;;;;;;;;5044981;28;20025;-70
2022/02/08 01:54:24;;;;;;;1.73;0.60;;;;;;;;;;5045053;28;20039;-69
2022/02/08 01:56:57;;;;;;;1.20;0.38;;;;;;;;;;5045262;28;20025;-69
2022/02/08 01:59:25;;;;;;;0.40;0.40;;;;;;;;;;5027041;28;20385;-69
2022/02/08 02:01:50;;;;;;;0.20;0.20;;;;;;;;;;5027232;28;20033;-69
2022/02/08 02:04:16;;;;;;;0.85;0.43;;;;;;;;;;5027222;28;20029;-69
2022/02/08 02:06:44;;;;;;;0.50;0.40;;;;;;;;;;5044944;28;20093;-69
2022/02/08 02:09:14;;;;;;;0.40;0.40;;;;;;;;;;5044911;28;20040;-69
2022/02/08 02:11:43;;;;;;;1.67;0.40;;;;;;;;;;5044832;28;20040;-69
2022/02/08 02:14:08;;;;;;;1.50;0.50;;;;;;;;;;5060185;28;20116;-69
2022/02/08 02:18:59;;;;;;;0.90;0.30;;;;;;;;;;5044834;28;20014;-69
2022/02/08 02:21:27;;;;;;;0.30;0.30;;;;;;;;;;5044735;28;20108;-69
2022/02/08 02:23:52;;;;;;;1.75;0.60;;;;;;;;;;5026815;28;20025;-69
2022/02/08 02:26:18;;;;;;;2.45;0.70;;;;;;;;;;5044575;28;20040;-69
2022/02/08 02:28:43;;;;;;;2.15;0.40;;;;;;;;;;5044371;28;20037;-69
2022/02/08 02:31:09;;;;;;;5.68;0.50;;;;;;;;;;5044460;28;20029;-69
2022/02/08 02:33:39;;;;;;;0.63;0.47;;;;;;;;;;5026706;28;20432;-69
2022/02/08 02:36:08;;;;;;;3.13;0.60;;;;;;;;;;5043777;28;20053;-69
2022/02/08 02:38:34;;;;;;;2.20;0.45;;;;;;;;;;5044599;28;20052;-69
2022/02/08 02:40:59;;;;;;;3.15;0.60;;;;;;;;;;5026541;28;20331;-69
2022/02/08 02:43:28;;;;;;;1.45;0.77;;;;;;;;;;5044470;28;20132;-69
2022/02/08 02:45:53;;;;;;;1.63;0.50;;;;;;;;;;5025809;28;20041;-70
2022/02/08 02:48:19;;;;;;;2.00;0.65;;;;;;;;;;5044131;28;20048;-69
2022/02/08 02:50:52;;;;;;;1.70;0.50;;;;;;;;;;5043836;28;20088;-69
2022/02/08 02:53:23;;;;;;;0.35;0.30;;;;;;;;;;5059054;28;20049;-69
2022/02/08 02:55:49;;;;;;;3.22;0.68;;;;;;;;;;5043860;28;20045;-69
2022/02/08 02:58:15;;;;;;;2.70;0.60;;;;;;;;;;5043894;28;20065;-69
2022/02/08 03:01:02;;;;;;;3.38;0.50;;;;;;;;;;5026129;28;20029;-69
2022/02/08 03:03:42;;;;;;;115.10;46.55;;;;;;;;;;5044191;28;20112;-69
2022/02/08 03:19:43;;;;;;;49.83;33.37;;;;;;;;;;5043571;28;19919;-69
2022/02/08 03:22:09;;;;;;;28.95;20.58;;;;;;;;;;5043956;28;20061;-69
2022/02/08 03:24:34;;;;;;;37.15;25.85;;;;;;;;;;5043373;28;20293;-69
2022/02/08 03:27:02;;;;;;;18.85;14.43;;;;;;;;;;5043440;28;20021;-69
2022/02/08 03:29:28;;;;;;;4.60;2.80;;;;;;;;;;5043779;28;20089;-69
2022/02/08 03:31:56;;;;;;;3.40;1.85;;;;;;;;;;5043764;28;20036;-70
2022/02/08 03:34:22;;;;;;;2.80;1.42;;;;;;;;;;5043038;28;20102;-70
2022/02/08 03:36:50;;;;;;;3.42;2.38;;;;;;;;;;5043182;28;20049;-69
2022/02/08 03:39:19;;;;;;;1.58;0.90;;;;;;;;;;5043265;28;20037;-69
2022/02/08 03:41:52;;;;;;;4.05;2.50;;;;;;;;;;5043163;28;20021;-68
2022/02/08 03:44:23;;;;;;;3.00;2.25;;;;;;;;;;5042933;28;20060;-69
2022/02/08 03:46:48;;;;;;;3.00;1.30;;;;;;;;;;5042792;28;20132;-70
2022/02/08 03:49:16;;;;;;;3.20;1.27;;;;;;;;;;5043180;28;20037;-69
2022/02/08 03:51:54;;;;;;;2.58;1.75;;;;;;;;;;5025191;28;20029;-69
2022/02/08 03:54:22;;;;;;;5.28;2.83;;;;;;;;;;5043008;28;20088;-69
2022/02/08 03:56:47;;;;;;;2.35;1.70;;;;;;;;;;5042861;28;20037;-69
2022/02/08 03:59:14;;;;;;;2.78;1.35;;;;;;;;;;5042973;28;20085;-70
2022/02/08 04:06:58;;;;;;;3.13;2.38;;;;;;;;;;5042738;28;19948;-70
2022/02/08 04:09:23;;;;;;;1.15;0.57;;;;;;;;;;5042485;28;20181;-69
2022/02/08 04:12:00;;;;;;;5.20;0.60;;;;;;;;;;5042829;28;20493;-69
2022/02/08 04:17:14;;;;;;;1.27;0.43;;;;;;;;;;5042729;28;20049;-69
2022/02/08 04:33:40;;;;;;;;;;;;;;;;;;5043226;28;20388;-69
2022/02/08 04:36:14;;;;;;;3.50;2.20;;;;;;;;;;5042251;28;19920;-69
2022/02/08 04:39:00;;;;;;;17.77;8.13;;;;;;;;;;5024884;28;20437;-69
2022/02/08 04:49:13;;;;;;;7.03;2.78;;;;;;;;;;5043104;28;20464;-69
2022/02/08 04:51:44;;;;;;;11.90;5.72;;;;;;;;;;5042233;28;20033;-69
2022/02/08 04:54:23;;;;;;;5.70;2.08;;;;;;;;;;5042641;28;20037;-70
2022/02/08 05:34:50;;;;;;;3.13;1.15;;;;;;;;;;5045344;28;20112;-68
2022/02/08 05:43:03;;;;;;;5.50;0.75;;;;;;;;;;5045822;28;20044;-69
2022/02/08 05:47:46;;;;;;;11.27;1.83;;;;;;;;;;5045339;28;20033;-69
2022/02/08 05:50:40;;;;;;;5.90;1.67;;;;;;;;;;5027327;28;20032;-69
2022/02/08 05:53:15;;;;;;;8.23;1.52;;;;;;;;;;5045306;28;20040;-69
2022/02/08 05:55:43;;;;;;;7.85;1.27;;;;;;;;;;5027349;28;20030;-70
2022/02/08 05:58:09;;;;;;;5.63;1.63;;;;;;;;;;5045517;28;20115;-69
2022/02/08 06:00:36;;;;;;;2.92;1.13;;;;;;;;;;5045079;28;20038;-70
2022/02/08 06:03:05;;;;;;;10.90;1.15;;;;;;;;;;5044851;28;20032;-70
2022/02/08 06:05:31;;;;;;;11.18;2.42;;;;;;;;;;5044728;28;20059;-69
2022/02/08 06:07:56;;;;;;;3.83;2.47;;;;;;;;;;5026982;28;20093;-69
2022/02/08 06:10:22;;;;;;;13.95;4.18;;;;;;;;;;5027189;28;20033;-69
2022/02/08 06:12:55;;;;;;;11.45;3.22;;;;;;;;;;5027240;28;20048;-69
2022/02/08 06:15:25;;;;;;;2.47;1.90;;;;;;;;;;5044872;28;20029;-69
2022/02/08 06:17:54;;;;;;;8.18;2.53;;;;;;;;;;5026241;28;20029;-69
2022/02/08 06:20:20;;;;;;;5.97;1.30;;;;;;;;;;5043794;28;20033;-70
2022/02/08 06:22:48;;;;;;;8.48;3.30;;;;;;;;;;5044822;28;20136;-70
2022/02/08 06:25:16;;;;;;;6.90;2.28;;;;;;;;;;5044709;28;20080;-69
2022/02/08 06:27:45;;;;;;;6.35;2.35;;;;;;;;;;5044331;28;20037;-69
2022/02/08 06:30:14;;;;;;;9.00;1.98;;;;;;;;;;5044618;28;20079;-70
2022/02/08 06:32:40;;;;;;;8.13;1.15;;;;;;;;;;5044463;28;20039;-69
2022/02/08 06:35:21;;;;;;;15.35;1.77;;;;;;;;;;5044324;28;20053;-69
2022/02/08 06:37:49;;;;;;;3.85;1.20;;;;;;;;;;5044252;28;20064;-69
2022/02/08 06:40:15;;;;;;;10.73;1.73;;;;;;;;;;5044527;28;20076;-69
2022/02/08 06:42:45;;;;;;;11.10;1.45;;;;;;;;;;5044520;28;20175;-71
2022/02/08 06:45:12;;;;;;;10.48;2.17;;;;;;;;;;5026406;28;20033;-69
2022/02/08 06:47:41;;;;;;;3.42;1.33;;;;;;;;;;5044192;28;20046;-70
2022/02/08 06:50:07;;;;;;;3.33;0.93;;;;;;;;;;5044159;28;20037;-70
2022/02/08 06:52:32;;;;;;;5.10;1.33;;;;;;;;;;5044459;28;20036;-70
2022/02/08 06:55:00;;;;;;;3.38;0.95;;;;;;;;;;5044246;28;20060;-69
2022/02/08 06:57:25;;;;;;;3.38;1.35;;;;;;;;;;5044246;28;20219;-70
2022/02/08 06:59:54;;;;;;;4.35;1.20;;;;;;;;;;5043992;28;20032;-70
2022/02/08 07:02:19;;;;;;;5.40;1.42;;;;;;;;;;5044027;28;20064;-69
2022/02/08 07:04:45;;;;;;;4.97;1.48;;;;;;;;;;5044207;28;20040;-70
2022/02/08 07:07:16;;;;;;;2.78;1.73;;;;;;;;;;5043725;28;20033;-68
2022/02/08 07:09:43;;;;;;;2.20;0.77;;;;;;;;;;5043875;28;20041;-69
2022/02/08 07:12:09;;;;;;;4.13;1.02;;;;;;;;;;5025847;28;20033;-69
2022/02/08 07:14:42;;;;;;;3.35;1.20;;;;;;;;;;5043670;28;20029;-70
2022/02/08 07:17:10;;;;;;;2.58;1.45;;;;;;;;;;5025604;28;20037;-69
2022/02/08 07:19:35;;;;;;;3.35;0.88;;;;;;;;;;5043247;28;20025;-68
2022/02/08 07:22:01;;;;;;;4.50;1.02;;;;;;;;;;5043752;28;20029;-69
2022/02/08 07:24:27;;;;;;;4.35;1.33;;;;;;;;;;5043516;28;20033;-69
2022/02/08 07:26:55;;;;;;;3.50;1.10;;;;;;;;;;5043612;28;20052;-69
2022/02/08 07:29:20;;;;;;;3.40;1.02;;;;;;;;;;5042789;28;20043;-70
2022/02/08 07:32:00;;;;;;;2.00;0.95;;;;;;;;;;5043226;28;20061;-69
2022/02/08 07:39:51;;;;;;;4.35;0.75;;;;;;;;;;5042124;28;20080;-68
2022/02/08 07:42:12;;;;;;;1.05;0.30;;;;;;;;;;5042873;28;20450;-69
2022/02/08 07:44:40;;;;;;;2.30;1.10;;;;;;;;;;5025235;28;20051;-69
2022/02/08 07:47:08;;;;;;;2.15;1.00;;;;;;;;;;5043449;28;20041;-69
2022/02/08 07:49:40;;;;;;;4.47;1.30;;;;;;;;;;5043236;28;20025;-69
2022/02/08 07:52:07;;;;;;;4.70;1.05;;;;;;;;;;5043377;28;20091;-69
2022/02/08 07:54:33;;;;;;;7.47;1.08;;;;;;;;;;5043340;28;20034;-69
2022/02/08 07:56:58;;;;;;;7.38;1.52;;;;;;;;;;5043314;28;20072;-69
2022/02/08 07:59:23;;;;;;;6.70;1.25;;;;;;;;;;5043071;28;20025;-69
2022/02/08 08:01:49;;;;;;;2.33;0.95;;;;;;;;;;5058145;28;20040;-71
2022/02/08 08:04:14;;;;;;;6.13;0.82;;;;;;;;;;5043211;28;20080;-69
2022/02/08 08:06:45;;;;;;;7.55;1.10;;;;;;;;;;5043017;28;20231;-70
2022/02/08 08:09:11;;;;;;;4.63;1.55;;;;;;;;;;5043186;28;20041;-69
2022/02/08 08:11:39;;;;;;;6.05;1.00;;;;;;;;;;5042859;28;20021;-69
2022/02/08 08:14:06;;;;;;;5.03;0.88;;;;;;;;;;5043303;28;20064;-70
2022/02/08 08:21:26;;;;;;;6.28;1.45;;;;;;;;;;5042818;28;20043;-69
2022/02/08 08:23:52;;;;;;;8.70;2.28;;;;;;;;;;5043116;28;20034;-69
2022/02/08 08:26:18;;;;;;;4.40;1.42;;;;;;;;;;5024915;28;20030;-70
2022/02/08 08:28:44;;;;;;;7.55;2.08;;;;;;;;;;5042741;28;20093;-70
2022/02/08 08:31:12;;;;;;;5.32;2.15;;;;;;;;;;5057965;28;20662;-70
2022/02/08 08:33:40;;;;;;;6.38;1.67;;;;;;;;;;5042940;28;20029;-70
2022/02/08 08:36:06;;;;;;;4.10;1.38;;;;;;;;;;5057500;28;20072;-70
2022/02/08 08:38:38;;;;;;;5.68;1.70;;;;;;;;;;5042716;28;20026;-71
2022/02/08 08:51:39;;;;;;;14.98;1.73;;;;;;;;;;5043883;28;20039;-71
2022/02/08 08:54:07;;;;;;;8.43;1.73;;;;;;;;;;5046829;28;20029;-72
2022/02/08 08:56:36;;;;;;;4.47;1.50;;;;;;;;;;5046546;28;20120;-71
2022/02/08 08:59:03;;;;;;;6.90;2.17;;;;;;;;;;5028613;28;20064;-70
2022/02/08 09:01:29;;;;;;;9.32;1.73;;;;;;;;;;5046671;28;20038;-70
2022/02/08 09:03:54;;;;;;;8.93;2.10;;;;;;;;;;5046831;28;20039;-71
2022/02/08 09:06:20;;;;;;;9.77;1.42;;;;;;;;;;5046741;28;20034;-72
2022/02/08 09:08:46;;;;;;;10.55;1.58;;;;;;;;;;5046654;28;20083;-70
2022/02/08 09:11:22;;;;;;;8.75;2.55;;;;;;;;;;5046264;28;20033;-71
2022/02/08 09:29:23;;;;;;;4.63;1.42;;;;;;;;;;5045933;28;20041;-71
2022/02/08 09:31:59;;;;;;;10.55;2.03;;;;;;;;;;5045611;28;20025;-71
2022/02/08 09:34:29;;;;;;;5.25;0.93;;;;;;;;;;5027613;28;20057;-70
2022/02/08 09:36:57;;;;;;;3.33;1.10;;;;;;;;;;5024230;28;20417;-71
2022/02/08 09:39:22;;;;;;;2.83;0.80;;;;;;;;;;5025648;28;20021;-70
2022/02/08 09:42:05;;;;;;;10.13;1.10;;;;;;;;;;5025624;28;20029;-70
2022/02/08 09:44:35;;;;;;;7.03;1.08;;;;;;;;;;5025459;28;20022;-70
2022/02/08 09:47:04;;;;;;;4.18;1.08;;;;;;;;;;5025650;28;20033;-70
2022/02/08 09:49:31;;;;;;;2.53;1.00;;;;;;;;;;5023905;28;20405;-70
2022/02/08 09:51:57;;;;;;;4.55;1.00;;;;;;;;;;5025612;28;20030;-70
2022/02/08 09:54:23;;;;;;;2.85;1.20;;;;;;;;;;5024161;28;20040;-69
2022/02/08 09:56:48;;;;;;;8.18;1.40;;;;;;;;;;5025417;28;20045;-70
2022/02/08 09:59:17;;;;;;;2.67;0.82;;;;;;;;;;5025486;28;20037;-71
2022/02/08 10:01:58;;;;;;;2.15;0.98;;;;;;;;;;5025358;28;20030;-71
2022/02/08 10:04:26;;;;;;;3.75;1.30;;;;;;;;;;5023926;28;20045;-70
2022/02/08 10:06:52;;;;;;;4.35;0.85;;;;;;;;;;5023679;28;20034;-72
2022/02/08 10:09:31;;;;;;;8.63;0.90;;;;;;;;;;5024678;28;20036;-70
2022/02/08 10:12:02;;;;;;;1.23;0.52;;;;;;;;;;5025291;28;20029;-71
2022/02/08 10:14:41;;;;;;;5.63;0.98;;;;;;;;;;5023809;28;20102;-70
2022/02/08 10:22:49;;;;;;;2.25;0.90;;;;;;;;;;5005503;28;20045;-70
2022/02/08 10:25:28;;;;;;;7.35;1.42;;;;;;;;;;5024821;28;20036;-71
2022/02/08 10:28:15;;;;;;;9.00;1.95;;;;;;;;;;5024689;28;20029;-71
2022/02/08 10:39:01;;;;;;;12.82;1.15;;;;;;;;;;5044728;28;20041;-71
2022/02/08 10:41:27;;;;;;;5.30;1.20;;;;;;;;;;5044608;28;20033;-70
2022/02/08 10:44:05;;;;;;;4.13;1.23;;;;;;;;;;5044474;28;20036;-71
2022/02/08 10:46:35;;;;;;;4.40;1.23;;;;;;;;;;5044397;28;20029;-70
2022/02/08 10:49:12;;;;;;;3.92;0.77;;;;;;;;;;5044376;28;20064;-71
2022/02/08 10:52:03;;;;;;;3.67;0.73;;;;;;;;;;5044109;28;20025;-70
2022/02/08 10:54:38;;;;;;;5.07;1.35;;;;;;;;;;5043262;28;20041;-71
2022/02/08 10:57:12;;;;;;;3.20;0.95;;;;;;;;;;5059833;28;20029;-71
2022/02/08 10:59:50;;;;;;;7.25;1.00;;;;;;;;;;5026194;28;20029;-71
2022/02/08 11:02:23;;;;;;;3.28;0.60;;;;;;;;;;5044035;28;20436;-70
2022/02/08 11:08:15;;;;;;;3.88;0.88;;;;;;;;;;5043748;28;20115;-71
2022/02/08 11:11:18;;;;;;;5.70;0.85;;;;;;;;;;5014770;28;20037;-71
2022/02/08 11:19:40;;;;;;;2.42;0.80;;;;;;;;;;5043792;28;20289;-72
2022/02/08 11:25:16;;;;;;;5.72;1.85;;;;;;;;;;5043691;28;20048;-71
2022/02/08 11:27:48;;;;;;;3.03;0.80;;;;;;;;;;5043620;28;20029;-71
2022/02/08 11:30:21;;;;;;;5.47;0.70;;;;;;;;;;5043765;28;20087;-70
2022/02/08 11:44:07;;;;;;;1.90;0.50;;;;;;;;;;5043265;28;20037;-71
2022/02/08 11:51:52;;;;;;;2.33;0.50;;;;;;;;;;5043323;28;20029;-71
2022/02/08 12:07:51;;;;;;;1.73;0.40;;;;;;;;;;5043080;28;20033;-70
2022/02/08 15:08:54;;;;;;;8.07;1.48;;;;;;;;;;5044153;28;20044;-71
2022/02/08 15:11:20;;;;;;;6.70;1.05;;;;;;;;;;5026154;28;20029;-71
2022/02/08 15:13:49;;;;;;;5.63;1.00;;;;;;;;;;5026402;28;20026;-71
2022/02/08 15:16:27;;;;;;;7.93;1.25;;;;;;;;;;5044047;28;20039;-71
2022/02/08 15:18:58;;;;;;;9.63;1.60;;;;;;;;;;5043961;28;20063;-72
2022/02/08 15:21:29;;;;;;;5.85;0.95;;;;;;;;;;5043821;28;20040;-72
2022/02/08 15:23:54;;;;;;;6.70;1.10;;;;;;;;;;5043944;28;20588;-72
2022/02/08 15:26:20;;;;;;;11.10;1.70;;;;;;;;;;5025899;28;20049;-72
2022/02/08 15:28:50;;;;;;;5.97;1.05;;;;;;;;;;5043683;28;20064;-71
2022/02/08 15:31:17;;;;;;;6.93;1.00;;;;;;;;;;5043628;28;20033;-71
2022/02/08 15:33:43;;;;;;;6.68;1.05;;;;;;;;;;5043799;28;20034;-72
2022/02/08 15:36:09;;;;;;;7.35;1.20;;;;;;;;;;5043238;28;20064;-72
2022/02/08 15:38:40;;;;;;;7.57;1.30;;;;;;;;;;5043478;28;20029;-71
2022/02/08 15:41:08;;;;;;;11.48;1.30;;;;;;;;;;5043625;28;20030;-71
2022/02/08 15:43:35;;;;;;;6.78;1.08;;;;;;;;;;5025890;28;20032;-71
2022/02/08 15:46:07;;;;;;;7.65;1.45;;;;;;;;;;5043616;28;20025;-71
2022/02/08 15:48:37;;;;;;;7.35;1.60;;;;;;;;;;5043554;28;20040;-71
2022/02/08 15:51:14;;;;;;;7.85;1.20;;;;;;;;;;5058666;28;20036;-71
2022/02/08 15:53:59;;;;;;;11.38;1.65;;;;;;;;;;5043289;28;20124;-71
2022/02/08 16:07:01;;;;;;;7.80;1.13;;;;;;;;;;5043233;28;20079;-71
2022/02/08 16:09:34;;;;;;;9.95;1.58;;;;;;;;;;5042929;28;20049;-71
2022/02/08 16:17:58;;;;;;;8.02;1.38;;;;;;;;;;5043886;28;20057;-71
2022/02/08 16:20:43;;;;;;;5.93;0.77;;;;;;;;;;5037351;28;20049;-71
2022/02/08 16:54:57;;;;;;;7.82;1.17;;;;;;;;;;5042704;28;20111;-71
2022/02/08 16:59:58;;;;;;;10.57;1.45;;;;;;;;;;5042247;28;20045;-72
2022/02/08 17:02:27;;;;;;;8.77;1.45;;;;;;;;;;5042466;28;20097;-70
2022/02/08 17:04:52;;;;;;;6.15;1.20;;;;;;;;;;5042378;28;20034;-71
2022/02/08 17:07:22;;;;;;;8.25;1.30;;;;;;;;;;5057807;28;20041;-71
2022/02/08 17:10:01;;;;;;;9.68;1.80;;;;;;;;;;5024683;28;20033;-71
2022/02/08 17:12:35;;;;;;;4.53;1.00;;;;;;;;;;5025556;28;20029;-71
2022/02/08 17:47:40;;;;;;;11.65;1.67;;;;;;;;;;5044695;28;20030;-71
2022/02/08 17:50:13;;;;;;;6.72;1.40;;;;;;;;;;5044080;28;20048;-70
2022/02/08 17:52:40;;;;;;;16.20;1.85;;;;;;;;;;5043305;28;20053;-71
2022/02/08 17:55:07;;;;;;;8.25;1.38;;;;;;;;;;5026593;28;20042;-71
2022/02/08 17:57:32;;;;;;;8.18;1.50;;;;;;;;;;5043107;28;20052;-71
2022/02/08 17:59:58;;;;;;;12.55;1.80;;;;;;;;;;5044137;28;20473;-71
2022/02/08 18:02:24;;;;;;;13.07;2.05;;;;;;;;;;5043985;28;20033;-71
2022/02/08 18:04:53;;;;;;;9.38;1.73;;;;;;;;;;5042988;28;20030;-71
2022/02/08 18:07:24;;;;;;;11.68;1.45;;;;;;;;;;5043411;28;20037;-71
2022/02/08 18:09:51;;;;;;;13.57;2.10;;;;;;;;;;5044715;28;20378;-71
2022/02/08 18:12:24;;;;;;;9.93;1.88;;;;;;;;;;5026950;28;20060;-71
2022/02/08 18:15:04;;;;;;;12.07;2.08;;;;;;;;;;5045061;28;20029;-71
2022/02/08 18:17:33;;;;;;;12.65;1.95;;;;;;;;;;5044748;28;20037;-71
2022/02/08 18:22:36;;;;;;;15.07;1.65;;;;;;;;;;5044030;28;20033;-71
2022/02/08 18:57:11;;;;;;;10.80;1.50;;;;;;;;;;5044487;28;20053;-71
2022/02/08 19:13:07;;;;;;;9.40;1.40;;;;;;;;;;5044041;28;20456;-71
2022/02/08 19:15:48;;;;;;;8.15;1.75;;;;;;;;;;5042794;28;20037;-71
2022/02/08 19:21:54;;;;;;;14.93;1.98;;;;;;;;;;5043599;28;20033;-71
2022/02/08 19:23:45;;;;;;;11.88;2.53;;;;;;;;;;5033752;28;20103;-71
2022/02/08 19:26:12;;;;;;;9.48;1.67;;;;;;;;;;5043068;28;20045;-71
2022/02/08 19:28:38;;;;;;;9.05;1.10;;;;;;;;;;5043652;28;20034;-70
2022/02/08 19:31:09;;;;;;;9.48;1.23;;;;;;;;;;5042421;28;20059;-70
2022/02/08 19:33:35;;;;;;;8.40;1.25;;;;;;;;;;5043470;28;20045;-70
2022/02/08 19:36:03;;;;;;;11.20;1.30;;;;;;;;;;5042453;28;20049;-71
2022/02/08 19:38:29;;;;;;;10.57;1.90;;;;;;;;;;5025517;28;20093;-71
2022/02/08 19:40:57;;;;;;;5.82;0.98;;;;;;;;;;5025731;28;20060;-71
2022/02/08 19:43:22;;;;;;;11.50;1.60;;;;;;;;;;5043895;28;20103;-71
2022/02/08 19:45:52;;;;;;;12.75;1.83;;;;;;;;;;5043825;28;20025;-71
2022/02/08 19:48:20;;;;;;;15.00;1.65;;;;;;;;;;5043733;28;20045;-71
2022/02/08 19:50:46;;;;;;;13.23;2.03;;;;;;;;;;5058761;28;20045;-70
2022/02/08 19:53:13;;;;;;;10.35;1.60;;;;;;;;;;5043820;28;20028;-71
2022/02/08 19:55:48;;;;;;;9.23;1.60;;;;;;;;;;5025531;28;20029;-71
2022/02/08 19:58:24;;;;;;;14.20;1.42;;;;;;;;;;5043762;28;20079;-71
2022/02/08 20:01:04;;;;;;;10.20;1.50;;;;;;;;;;5043450;28;20061;-71
2022/02/08 20:03:37;;;;;;;10.10;1.30;;;;;;;;;;5043439;28;20030;-71
2022/02/08 20:06:03;;;;;;;7.65;1.40;;;;;;;;;;5025881;28;20060;-71
2022/02/08 20:08:29;;;;;;;11.98;2.17;;;;;;;;;;5043439;28;20488;-71
2022/02/08 20:10:55;;;;;;;12.93;2.10;;;;;;;;;;5043085;28;20037;-71
2022/02/08 20:13:26;;;;;;;7.78;1.70;;;;;;;;;;5043653;28;20091;-71
2022/02/08 20:15:55;;;;;;;9.27;1.23;;;;;;;;;;5025456;28;20254;-71
2022/02/08 20:18:25;;;;;;;21.35;3.25;;;;;;;;;;5043521;28;20029;-71
2022/02/08 20:20:51;;;;;;;9.25;1.90;;;;;;;;;;5025271;28;20075;-71
2022/02/08 20:23:19;;;;;;;14.27;1.70;;;;;;;;;;5025720;28;20478;-71
2022/02/08 20:25:50;;;;;;;5.90;1.55;;;;;;;;;;5043146;28;20029;-71
2022/02/08 20:29:19;;;;;;;8.15;1.23;;;;;;;;;;5043766;28;20036;-71
2022/02/08 20:31:11;;;;;;;9.75;1.85;;;;;;;;;;5038006;28;20046;-71
2022/02/08 20:33:37;;;;;;;7.82;1.33;;;;;;;;;;5043237;28;20036;-71
2022/02/08 20:36:05;;;;;;;11.25;1.23;;;;;;;;;;5043058;28;20062;-71
2022/02/08 20:38:30;;;;;;;9.00;1.50;;;;;;;;;;5025636;28;20057;-71
2022/02/08 20:40:58;;;;;;;12.27;1.90;;;;;;;;;;5043397;28;20144;-71
2022/02/08 20:43:32;;;;;;;10.07;1.58;;;;;;;;;;5058393;28;20075;-71
2022/02/08 20:45:58;;;;;;;11.27;1.48;;;;;;;;;;5043333;28;20037;-71
2022/02/08 20:48:28;;;;;;;12.00;1.55;;;;;;;;;;5045931;28;20041;-71
2022/02/08 20:50:58;;;;;;;7.60;1.45;;;;;;;;;;5029216;28;20029;-71
2022/02/08 20:59:05;;;;;;;12.75;1.40;;;;;;;;;;5047126;28;20108;-71
2022/02/08 21:01:44;;;;;;;8.25;1.58;;;;;;;;;;5029155;28;20034;-71
2022/02/08 21:06:53;;;;;;;9.05;1.13;;;;;;;;;;5046785;28;20087;-71
2022/02/08 21:09:20;;;;;;;;;;;;;;;;;;5046826;28;20040;-71
2022/02/08 21:11:54;;;;;;;10.60;1.65;;;;;;;;;;5045903;28;20261;-71
2022/02/08 21:14:21;;;;;;;8.35;1.60;;;;;;;;;;5061252;28;20040;-71
2022/02/08 21:16:54;;;;;;;10.65;1.33;;;;;;;;;;5045139;28;20033;-72
2022/02/08 21:19:25;;;;;;;9.07;1.67;;;;;;;;;;5027154;28;20405;-71
2022/02/08 21:21:52;;;;;;;14.65;2.00;;;;;;;;;;5045935;28;20026;-72
2022/02/08 21:24:22;;;;;;;7.68;2.20;;;;;;;;;;5044983;28;20030;-71
2022/02/08 21:26:54;;;;;;;12.07;2.13;;;;;;;;;;5045906;28;20038;-71
2022/02/08 21:29:37;;;;;;;14.70;2.10;;;;;;;;;;5045106;28;20056;-72
2022/02/08 21:54:20;;;;;;;16.55;2.22;;;;;;;;;;5045290;28;20091;-70
2022/02/08 21:56:48;;;;;;;8.57;1.33;;;;;;;;;;5045266;28;20048;-71
2022/02/08 21:59:13;;;;;;;12.60;1.75;;;;;;;;;;5044076;28;20551;-71
2022/02/08 22:01:38;;;;;;;7.63;1.33;;;;;;;;;;5045064;28;20029;-71
2022/02/08 22:04:10;;;;;;;12.23;1.63;;;;;;;;;;5045461;28;20025;-70
2022/02/08 22:06:38;;;;;;;14.00;1.63;;;;;;;;;;5045171;28;20041;-70
2022/02/08 22:09:08;;;;;;;11.52;1.95;;;;;;;;;;5044995;28;20100;-70
2022/02/08 22:22:24;;;;;;;8.55;1.58;;;;;;;;;;5045099;28;20044;-71
2022/02/08 22:25:02;;;;;;;5.85;1.13;;;;;;;;;;5044922;28;20042;-71
2022/02/08 22:27:40;;;;;;;10.18;1.90;;;;;;;;;;5026953;28;20263;-71
2022/02/08 22:30:24;;;;;;;7.72;0.95;;;;;;;;;;5044318;28;20099;-70
2022/02/08 22:32:52;;;;;;;;;;;;;;;;;;5027390;28;20033;-70
2022/02/08 22:35:28;;;;;;;11.00;1.60;;;;;;;;;;5043598;28;19913;-71
2022/02/08 22:38:16;;;;;;;9.55;1.55;;;;;;;;;;5058536;28;20528;-70
2022/02/08 22:40:46;;;;;;;13.98;2.28;;;;;;;;;;5044016;28;20056;-70
2022/02/08 22:43:20;;;;;;;5.78;1.13;;;;;;;;;;5044768;28;20028;-70
2022/02/08 22:45:45;;;;;;;10.27;1.30;;;;;;;;;;5044014;28;20038;-71
2022/02/08 22:48:12;;;;;;;9.88;1.70;;;;;;;;;;5044587;28;20060;-71
2022/02/08 22:50:38;;;;;;;5.35;1.45;;;;;;;;;;5059259;28;20052;-70
2022/02/08 22:53:08;;;;;;;11.85;2.20;;;;;;;;;;5026553;28;20064;-70
2022/02/08 22:55:34;;;;;;;13.95;1.73;;;;;;;;;;5026356;28;20078;-71
2022/02/08 22:58:09;;;;;;;9.85;1.55;;;;;;;;;;5026615;28;20028;-70
2022/02/08 23:00:40;;;;;;;9.32;1.35;;;;;;;;;;5025878;28;20037;-71
2022/02/08 23:03:07;;;;;;;6.95;1.50;;;;;;;;;;5026573;28;20044;-70
2022/02/08 23:05:36;;;;;;;15.10;2.45;;;;;;;;;;5044058;28;20097;-70
2022/02/08 23:08:02;;;;;;;9.48;1.67;;;;;;;;;;5044139;28;20029;-70
2022/02/08 23:10:46;;;;;;;11.20;1.92;;;;;;;;;;5043265;28;20107;-70
2022/02/08 23:13:17;;;;;;;9.10;1.08;;;;;;;;;;5025792;28;20025;-70
2022/02/08 23:37:48;;;;;;;2.38;0.73;;;;;;;;;;5043547;28;20064;-70
2022/02/08 23:40:19;;;;;;;12.73;1.60;;;;;;;;;;5043055;28;20409;-71
2022/02/08 23:42:48;;;;;;;10.75;1.55;;;;;;;;;;5043139;28;20029;-71
2022/02/08 23:45:13;;;;;;;14.40;2.03;;;;;;;;;;5043403;28;20120;-70
2022/02/08 23:48:19;;;;;;;12.43;1.60;;;;;;;;;;5043374;28;20454;-71
2022/02/08 23:50:48;;;;;;;12.50;1.80;;;;;;;;;;5040064;28;20042;-71
2022/02/08 23:53:38;;;;;;;13.55;2.10;;;;;;;;;;5043566;28;20032;-70
2022/02/08 23:56:17;;;;;;;8.48;1.23;;;;;;;;;;5025229;28;20029;-71
2022/02/08 23:58:45;;;;;;;8.90;1.17;;;;;;;;;;5043080;28;20045;-70
